createdAt,value
2019-05-07T00:00:56.600Z,0.85
2019-05-07T00:03:27.511Z,0.80
2019-05-07T00:05:58.122Z,0.72
2019-05-07T00:08:28.810Z,1.10
2019-05-07T00:11:02.114Z,1.00
2019-05-07T00:13:33.313Z,0.85
2019-05-07T00:16:04.119Z,0.72
2019-05-07T00:18:34.790Z,0.90
2019-05-07T00:21:05.577Z,0.72
2019-05-07T00:23:36.242Z,0.95
2019-05-07T00:26:07.029Z,0.75
2019-05-07T00:28:37.937Z,0.70
2019-05-07T00:31:08.683Z,0.93
2019-05-07T00:33:39.389Z,1.10
2019-05-07T00:36:14.810Z,0.75
2019-05-07T00:38:46.997Z,0.72
2019-05-07T00:41:22.951Z,0.97
2019-05-07T00:43:55.200Z,1.00
2019-05-07T00:46:27.583Z,0.93
2019-05-07T00:48:58.416Z,0.93
2019-05-07T00:51:33.604Z,0.90
2019-05-07T00:54:04.932Z,1.00
2019-05-07T00:56:35.567Z,0.93
2019-05-07T00:59:06.115Z,0.75
2019-05-07T01:01:37.199Z,0.85
2019-05-07T01:04:08.038Z,0.82
2019-05-07T01:06:38.724Z,0.80
2019-05-07T01:09:09.309Z,0.80
2019-05-07T01:11:43.013Z,0.80
2019-05-07T01:14:14.457Z,0.68
2019-05-07T01:16:45.148Z,0.90
2019-05-07T01:19:15.842Z,0.90
2019-05-07T01:21:46.577Z,0.60
2019-05-07T01:24:17.200Z,0.80
2019-05-07T01:26:47.809Z,0.70
2019-05-07T01:29:18.479Z,0.90
2019-05-07T01:31:52.493Z,1.00
2019-05-07T01:34:27.594Z,0.80
2019-05-07T01:36:58.330Z,0.80
2019-05-07T01:39:29.068Z,1.05
2019-05-07T01:42:01.559Z,1.00
2019-05-07T01:44:32.608Z,0.80
2019-05-07T01:47:03.677Z,0.90
2019-05-07T01:49:34.277Z,1.20
2019-05-07T01:52:04.887Z,1.05
2019-05-07T01:54:35.492Z,0.78
2019-05-07T01:57:06.002Z,0.75
2019-05-07T01:59:36.632Z,0.88
2019-05-07T02:02:22.847Z,0.93
2019-05-07T02:04:55.368Z,1.20
2019-05-07T02:07:27.516Z,1.15
2019-05-07T02:10:02.915Z,1.02
2019-05-07T02:12:35.496Z,1.37
2019-05-07T02:15:07.265Z,1.07
2019-05-07T02:17:37.945Z,0.90
2019-05-07T02:20:08.467Z,0.95
2019-05-07T02:22:39.119Z,1.10
2019-05-07T02:25:09.781Z,1.00
2019-05-07T02:27:42.100Z,1.35
2019-05-07T02:30:14.795Z,1.20
2019-05-07T02:32:45.080Z,1.15
2019-05-07T02:35:16.206Z,0.90
2019-05-07T02:37:53.488Z,0.85
2019-05-07T02:40:34.658Z,1.05
2019-05-07T02:43:05.217Z,1.00
2019-05-07T02:45:53.799Z,1.30
2019-05-07T02:48:28.625Z,1.07
2019-05-07T02:51:06.285Z,1.20
2019-05-07T02:53:38.421Z,1.20
2019-05-07T02:56:09.339Z,0.95
2019-05-07T02:58:43.183Z,0.88
2019-05-07T03:01:13.838Z,1.10
2019-05-07T03:03:45.095Z,0.90
2019-05-07T03:06:15.775Z,0.82
2019-05-07T03:08:46.479Z,0.80
2019-05-07T03:11:17.181Z,1.00
2019-05-07T03:13:47.867Z,1.02
2019-05-07T03:16:37.448Z,0.80
2019-05-07T03:18:53.189Z,1.00
2019-05-07T03:21:23.639Z,0.90
2019-05-07T03:23:56.077Z,1.00
2019-05-07T03:26:28.171Z,1.00
2019-05-07T03:29:03.640Z,0.97
2019-05-07T03:31:39.761Z,1.02
2019-05-07T03:34:25.697Z,1.07
2019-05-07T03:36:57.833Z,0.93
2019-05-07T03:39:28.513Z,1.00
2019-05-07T03:41:59.057Z,1.00
2019-05-07T03:44:34.347Z,1.00
2019-05-07T03:47:18.618Z,1.20
2019-05-07T03:49:49.709Z,1.50
2019-05-07T03:52:20.056Z,1.00
2019-05-07T03:54:53.829Z,1.07
2019-05-07T03:57:23.735Z,1.17
2019-05-07T04:02:25.414Z,1.12
2019-05-07T04:04:55.994Z,1.02
2019-05-07T04:07:26.716Z,1.30
2019-05-07T04:09:57.277Z,1.20
2019-05-07T04:12:27.841Z,1.20
2019-05-07T04:14:58.478Z,1.40
2019-05-07T04:17:29.223Z,1.20
2019-05-07T04:19:59.817Z,1.20
2019-05-07T04:22:34.286Z,1.40
2019-05-07T04:25:13.894Z,1.05
2019-05-07T04:28:04.243Z,1.15
2019-05-07T04:30:36.413Z,1.20
2019-05-07T04:33:08.508Z,1.30
2019-05-07T04:35:43.430Z,1.37
2019-05-07T04:38:13.693Z,1.10
2019-05-07T04:40:44.812Z,1.35
2019-05-07T04:43:15.273Z,1.10
2019-05-07T04:45:45.878Z,1.17
2019-05-07T04:48:16.446Z,1.25
2019-05-07T04:50:48.609Z,1.12
2019-05-07T04:53:19.215Z,1.37
2019-05-07T04:55:49.702Z,1.32
2019-05-07T04:58:23.308Z,1.50
2019-05-07T05:00:53.764Z,1.50
2019-05-07T05:03:26.226Z,1.13
2019-05-07T05:05:57.243Z,1.63
2019-05-07T05:08:28.200Z,1.50
2019-05-07T05:10:58.847Z,1.50
2019-05-07T05:13:29.426Z,1.90
2019-05-07T05:16:02.073Z,1.77
2019-05-07T05:18:33.078Z,1.80
2019-05-07T05:21:12.108Z,1.65
2019-05-07T05:23:44.410Z,1.80
2019-05-07T05:26:15.127Z,1.67
2019-05-07T05:28:45.734Z,1.77
2019-05-07T05:31:16.389Z,1.77
2019-05-07T05:33:47.351Z,1.80
2019-05-07T05:36:18.105Z,1.85
2019-05-07T05:38:48.663Z,1.82
2019-05-07T05:41:19.301Z,1.90
2019-05-07T05:44:08.105Z,1.62
2019-05-07T05:46:38.834Z,1.72
2019-05-07T05:49:09.515Z,1.95
2019-05-07T05:51:44.597Z,1.50
2019-05-07T05:54:25.515Z,1.77
2019-05-07T05:57:04.359Z,1.62
2019-05-07T05:59:47.944Z,1.62
2019-05-07T06:02:28.758Z,1.77
2019-05-07T06:05:02.162Z,1.52
2019-05-07T06:07:34.484Z,1.50
2019-05-07T06:10:08.380Z,2.07
2019-05-07T06:12:49.600Z,1.60
2019-05-07T06:15:32.619Z,1.95
2019-05-07T06:18:20.924Z,1.90
2019-05-07T06:20:49.615Z,1.80
2019-05-07T06:23:24.776Z,2.27
2019-05-07T06:25:55.285Z,2.20
2019-05-07T06:28:26.075Z,2.17
2019-05-07T06:30:56.779Z,2.62
2019-05-07T06:33:27.371Z,2.37
2019-05-07T06:35:59.127Z,2.30
2019-05-07T06:38:31.961Z,2.52
2019-05-07T06:43:42.165Z,2.50
2019-05-07T06:46:13.008Z,2.60
2019-05-07T06:48:46.191Z,2.67
2019-05-07T06:51:17.559Z,2.47
2019-05-07T06:53:48.195Z,2.52
2019-05-07T06:56:19.088Z,2.70
2019-05-07T06:58:52.639Z,2.80
2019-05-07T07:01:42.198Z,2.70
2019-05-07T07:04:16.408Z,2.50
2019-05-07T07:06:48.829Z,2.87
2019-05-07T07:09:23.444Z,3.20
2019-05-07T07:12:04.125Z,3.17
2019-05-07T07:14:34.825Z,3.20
2019-05-07T07:17:05.525Z,3.10
2019-05-07T07:19:36.326Z,3.02
2019-05-07T07:22:07.138Z,3.00
2019-05-07T07:24:37.752Z,3.02
2019-05-07T07:27:08.630Z,3.30
2019-05-07T07:29:57.188Z,3.40
2019-05-07T07:32:31.928Z,3.55
2019-05-07T07:35:03.233Z,3.85
2019-05-07T07:37:35.384Z,3.80
2019-05-07T07:40:09.594Z,4.00
2019-05-07T07:42:42.525Z,4.05
2019-05-07T07:45:17.196Z,3.80
2019-05-07T07:47:49.509Z,3.75
2019-05-07T07:50:22.270Z,3.92
2019-05-07T07:52:52.950Z,4.42
2019-05-07T07:55:25.282Z,3.92
2019-05-07T07:57:57.397Z,4.30
2019-05-07T08:00:32.999Z,3.80
2019-05-07T08:03:05.329Z,4.22
2019-05-07T08:05:35.943Z,4.03
2019-05-07T08:08:06.742Z,4.28
2019-05-07T08:10:37.684Z,4.45
2019-05-07T08:13:08.282Z,4.08
2019-05-07T08:15:39.188Z,4.50
2019-05-07T08:18:11.838Z,3.92
2019-05-07T08:20:43.073Z,4.00
2019-05-07T08:23:13.861Z,4.17
2019-05-07T08:25:52.596Z,4.10
2019-05-07T08:28:23.440Z,3.60
2019-05-07T08:30:57.006Z,3.55
2019-05-07T08:33:29.124Z,3.70
2019-05-07T08:36:14.291Z,3.60
2019-05-07T08:38:53.247Z,4.15
2019-05-07T08:41:24.407Z,3.80
2019-05-07T08:44:08.105Z,3.30
2019-05-07T08:46:36.611Z,3.60
2019-05-07T08:49:09.003Z,3.22
2019-05-07T08:51:39.833Z,3.45
2019-05-07T08:54:12.303Z,2.55
2019-05-07T08:56:43.289Z,2.75
2019-05-07T08:59:14.091Z,2.80
2019-05-07T09:01:44.796Z,2.35
2019-05-07T09:04:15.656Z,2.70
2019-05-07T09:06:46.262Z,3.00
2019-05-07T09:09:16.967Z,2.87
2019-05-07T09:11:47.690Z,2.95
2019-05-07T09:14:18.553Z,2.72
2019-05-07T09:16:49.216Z,2.52
2019-05-07T09:19:21.679Z,2.98
2019-05-07T09:21:52.778Z,2.72
2019-05-07T09:24:23.943Z,3.02
2019-05-07T09:27:12.184Z,3.00
2019-05-07T09:29:53.858Z,2.83
2019-05-07T09:32:32.665Z,2.87
2019-05-07T09:35:05.710Z,3.25
2019-05-07T09:37:36.352Z,3.20
2019-05-07T09:40:07.332Z,3.25
2019-05-07T09:42:38.184Z,3.10
2019-05-07T09:45:08.892Z,3.25
2019-05-07T09:47:41.616Z,3.37
2019-05-07T09:50:12.069Z,3.20
2019-05-07T09:52:42.819Z,3.58
2019-05-07T09:55:17.178Z,3.12
2019-05-07T09:57:45.618Z,3.63
2019-05-07T10:00:16.313Z,3.62
2019-05-07T10:02:47.039Z,3.55
2019-05-07T10:05:17.659Z,4.33
2019-05-07T10:07:48.670Z,4.10
2019-05-07T10:10:19.506Z,3.92
2019-05-07T10:12:54.791Z,3.70
2019-05-07T10:15:25.423Z,3.58
2019-05-07T10:17:57.659Z,4.50
2019-05-07T10:20:47.504Z,4.60
2019-05-07T10:23:22.913Z,4.20
2019-05-07T10:25:53.856Z,4.20
2019-05-07T10:28:25.131Z,4.40
2019-05-07T10:30:56.347Z,4.22
2019-05-07T10:33:27.121Z,4.28
2019-05-07T10:35:58.179Z,4.87
2019-05-07T10:38:29.136Z,4.75
2019-05-07T10:40:59.905Z,4.90
2019-05-07T10:43:32.558Z,4.92
2019-05-07T10:46:07.414Z,5.28
2019-05-07T10:48:52.000Z,4.67
2019-05-07T10:51:22.905Z,5.42
2019-05-07T10:53:53.516Z,5.22
2019-05-07T10:56:24.334Z,4.87
2019-05-07T10:58:55.130Z,5.30
2019-05-07T11:01:39.427Z,5.58
2019-05-07T11:04:10.097Z,5.55
2019-05-07T11:06:41.770Z,5.75
2019-05-07T11:09:12.751Z,6.15
2019-05-07T11:11:43.599Z,5.75
2019-05-07T11:14:14.468Z,5.37
2019-05-07T11:16:51.639Z,5.97
2019-05-07T11:19:22.418Z,5.70
2019-05-07T11:21:53.056Z,6.22
2019-05-07T11:24:23.742Z,5.78
2019-05-07T11:26:54.607Z,5.50
2019-05-07T11:29:25.250Z,5.50
2019-05-07T11:31:55.991Z,5.17
2019-05-07T11:34:26.995Z,5.62
2019-05-07T11:36:57.767Z,5.75
2019-05-07T11:39:28.469Z,7.00
2019-05-07T11:42:12.785Z,5.92
2019-05-07T11:44:43.490Z,5.70
2019-05-07T11:47:28.218Z,5.97
2019-05-07T11:50:14.754Z,5.50
2019-05-07T11:53:01.722Z,5.87
2019-05-07T11:55:32.370Z,6.55
2019-05-07T11:58:02.982Z,6.15
2019-05-07T12:00:47.267Z,5.72
2019-05-07T12:03:17.971Z,5.92
2019-05-07T12:05:48.795Z,6.62
2019-05-07T12:08:19.437Z,6.45
2019-05-07T12:10:51.810Z,6.12
2019-05-07T12:13:22.651Z,6.72
2019-05-07T12:15:54.053Z,6.25
2019-05-07T12:18:24.725Z,6.15
2019-05-07T12:20:56.074Z,5.65
2019-05-07T12:23:26.817Z,6.03
2019-05-07T12:25:57.698Z,6.20
2019-05-07T12:28:28.381Z,6.28
2019-05-07T12:31:06.670Z,6.00
2019-05-07T12:33:48.350Z,6.15
2019-05-07T12:36:19.098Z,5.70
2019-05-07T12:38:53.301Z,5.67
2019-05-07T12:41:33.768Z,5.10
2019-05-07T12:44:07.509Z,5.75
2019-05-07T12:46:38.242Z,5.92
2019-05-07T12:49:08.962Z,6.03
2019-05-07T12:51:42.684Z,5.83
2019-05-07T12:54:15.012Z,5.95
2019-05-07T12:56:45.915Z,5.90
2019-05-07T12:59:16.965Z,5.50
2019-05-07T13:01:52.145Z,5.72
2019-05-07T13:04:24.422Z,5.97
2019-05-07T13:07:02.824Z,6.27
2019-05-07T13:09:33.568Z,5.60
2019-05-07T13:12:04.167Z,5.67
2019-05-07T13:14:34.965Z,6.03
2019-05-07T13:17:05.876Z,5.60
2019-05-07T13:19:39.043Z,6.05
2019-05-07T13:22:09.039Z,6.10
2019-05-07T13:24:39.702Z,6.15
2019-05-07T13:27:10.479Z,5.22
2019-05-07T13:29:42.516Z,5.60
2019-05-07T13:32:13.674Z,5.83
2019-05-07T13:34:45.444Z,6.00
2019-05-07T13:37:17.847Z,5.83
2019-05-07T13:39:51.891Z,6.08
2019-05-07T13:42:43.539Z,5.15
2019-05-07T13:45:13.175Z,5.75
2019-05-07T13:47:44.106Z,6.07
2019-05-07T13:50:15.288Z,5.58
2019-05-07T13:52:46.009Z,5.65
2019-05-07T13:55:16.618Z,5.95
2019-05-07T13:57:47.499Z,5.80
2019-05-07T14:00:21.774Z,5.72
2019-05-07T14:02:54.691Z,5.28
2019-05-07T14:05:24.468Z,5.60
2019-05-07T14:07:55.048Z,5.50
2019-05-07T14:10:26.037Z,5.78
2019-05-07T14:13:07.572Z,5.55
2019-05-07T14:15:29.706Z,5.42
2019-05-07T14:18:02.112Z,6.25
2019-05-07T14:20:33.143Z,6.05
2019-05-07T14:23:03.848Z,6.10
2019-05-07T14:25:35.106Z,5.92
2019-05-07T14:28:05.877Z,5.80
2019-05-07T14:30:36.530Z,6.28
2019-05-07T14:33:12.456Z,6.22
2019-05-07T14:35:57.323Z,6.15
2019-05-07T14:38:35.806Z,6.70
2019-05-07T14:41:06.450Z,6.12
2019-05-07T14:43:44.850Z,6.42
2019-05-07T14:46:15.618Z,6.58
2019-05-07T14:48:46.543Z,6.60
2019-05-07T14:51:17.289Z,6.37
2019-05-07T14:53:49.277Z,6.37
2019-05-07T14:56:20.155Z,5.78
2019-05-07T14:58:51.710Z,5.85
2019-05-07T15:01:23.911Z,6.42
2019-05-07T15:03:54.702Z,6.20
2019-05-07T15:06:26.066Z,6.08
2019-05-07T15:08:56.909Z,5.72
2019-05-07T15:11:27.728Z,6.45
2019-05-07T15:13:58.428Z,5.85
2019-05-07T15:16:29.454Z,5.95
2019-05-07T15:19:00.491Z,5.53
2019-05-07T15:21:32.350Z,5.67
2019-05-07T15:24:03.245Z,5.65
2019-05-07T15:26:34.957Z,6.60
2019-05-07T15:29:07.170Z,5.90
2019-05-07T15:31:39.675Z,6.73
2019-05-07T15:34:12.246Z,6.58
2019-05-07T15:36:42.976Z,6.87
2019-05-07T15:39:14.055Z,7.10
2019-05-07T15:41:45.051Z,7.05
2019-05-07T15:44:15.957Z,5.95
2019-05-07T15:46:46.675Z,5.80
2019-05-07T15:49:17.448Z,6.20
2019-05-07T15:51:48.515Z,6.75
2019-05-07T15:54:19.517Z,7.33
2019-05-07T15:56:52.288Z,7.17
2019-05-07T15:59:23.471Z,7.50
2019-05-07T16:01:55.913Z,7.30
2019-05-07T16:04:26.797Z,7.85
2019-05-07T16:06:58.995Z,7.95
2019-05-07T16:09:32.624Z,7.80
2019-05-07T16:12:03.332Z,7.53
2019-05-07T16:14:35.419Z,7.60
2019-05-07T16:17:07.692Z,7.17
2019-05-07T16:19:38.394Z,7.05
2019-05-07T16:22:12.589Z,7.28
2019-05-07T16:24:43.082Z,6.78
2019-05-07T16:27:15.449Z,6.42
2019-05-07T16:29:46.221Z,6.95
2019-05-07T16:32:16.970Z,7.75
2019-05-07T16:34:47.761Z,7.72
2019-05-07T16:37:18.461Z,7.40
2019-05-07T16:39:50.077Z,7.28
2019-05-07T16:42:21.828Z,7.80
2019-05-07T16:44:52.619Z,7.20
2019-05-07T16:47:23.750Z,7.65
2019-05-07T16:49:54.753Z,7.00
2019-05-07T16:52:25.406Z,7.12
2019-05-07T16:54:56.124Z,7.05
2019-05-07T16:57:34.399Z,7.47
2019-05-07T17:00:08.382Z,7.37
2019-05-07T17:02:47.396Z,8.48
2019-05-07T17:05:18.436Z,7.70
2019-05-07T17:08:02.262Z,7.80
2019-05-07T17:10:32.649Z,6.95
2019-05-07T17:13:03.363Z,7.50
2019-05-07T17:15:35.723Z,7.62
2019-05-07T17:18:06.781Z,7.55
2019-05-07T17:20:38.389Z,7.58
2019-05-07T17:23:11.824Z,7.80
2019-05-07T17:25:42.779Z,7.87
2019-05-07T17:28:13.905Z,9.25
2019-05-07T17:30:44.725Z,8.05
2019-05-07T17:33:15.816Z,8.05
2019-05-07T17:35:46.485Z,8.28
2019-05-07T17:38:17.297Z,8.50
2019-05-07T17:40:52.158Z,8.40
2019-05-07T17:43:23.884Z,8.20
2019-05-07T17:45:54.774Z,8.10
2019-05-07T17:48:25.439Z,8.35
2019-05-07T17:51:07.109Z,8.13
2019-05-07T17:54:00.062Z,8.33
2019-05-07T17:56:31.900Z,8.48
2019-05-07T17:59:02.826Z,10.03
2019-05-07T18:01:35.272Z,9.03
2019-05-07T18:04:05.922Z,8.55
2019-05-07T18:06:37.067Z,9.15
2019-05-07T18:09:09.251Z,8.40
2019-05-07T18:11:42.957Z,9.38
2019-05-07T18:14:14.005Z,8.98
2019-05-07T18:16:49.149Z,8.70
2019-05-07T18:19:21.761Z,7.67
2019-05-07T18:21:52.824Z,7.30
2019-05-07T18:24:23.928Z,7.12
2019-05-07T18:26:54.731Z,6.70
2019-05-07T18:29:25.588Z,7.03
2019-05-07T18:32:00.887Z,8.20
2019-05-07T18:34:32.228Z,8.18
2019-05-07T18:37:04.673Z,7.92
2019-05-07T18:39:35.573Z,8.30
2019-05-07T18:42:06.524Z,7.58
2019-05-07T18:44:37.138Z,7.87
2019-05-07T18:47:07.823Z,7.55
2019-05-07T18:49:38.697Z,7.67
2019-05-07T18:52:09.756Z,7.00
2019-05-07T18:54:42.785Z,7.55
2019-05-07T18:57:13.992Z,7.45
2019-05-07T18:59:45.095Z,7.22
2019-05-07T19:02:16.329Z,7.47
2019-05-07T19:04:47.358Z,7.35
2019-05-07T19:07:19.288Z,7.67
2019-05-07T19:09:51.701Z,7.00
2019-05-07T19:12:25.732Z,7.85
2019-05-07T19:14:56.564Z,8.00
2019-05-07T19:17:32.142Z,7.90
2019-05-07T19:20:03.409Z,7.78
2019-05-07T19:22:37.897Z,7.92
2019-05-07T19:25:07.167Z,7.65
2019-05-07T19:27:38.311Z,7.35
2019-05-07T19:30:12.386Z,7.42
2019-05-07T19:32:43.162Z,6.85
2019-05-07T19:35:13.900Z,7.67
2019-05-07T19:37:45.394Z,7.70
2019-05-07T19:40:17.303Z,7.55
2019-05-07T19:42:48.687Z,7.75
2019-05-07T19:45:22.377Z,7.37
2019-05-07T19:47:52.425Z,7.35
2019-05-07T19:50:23.545Z,7.87
2019-05-07T19:52:54.576Z,7.97
2019-05-07T19:55:25.233Z,8.63
2019-05-07T19:57:57.526Z,9.30
2019-05-07T20:00:28.563Z,8.83
2019-05-07T20:03:03.530Z,9.55
2019-05-07T20:05:37.190Z,9.33
2019-05-07T20:08:06.535Z,8.87
2019-05-07T20:10:39.044Z,8.90
2019-05-07T20:13:09.847Z,9.48
2019-05-07T20:15:42.570Z,8.40
2019-05-07T20:20:43.849Z,9.05
2019-05-07T20:23:14.687Z,9.08
2019-05-07T20:25:45.287Z,8.83
2019-05-07T20:28:16.596Z,8.88
2019-05-07T20:30:48.050Z,9.58
2019-05-07T20:33:21.852Z,9.70
2019-05-07T20:38:25.113Z,9.45
2019-05-07T20:40:57.671Z,9.40
2019-05-07T20:43:29.134Z,9.03
2019-05-07T20:46:02.606Z,9.95
2019-05-07T20:48:33.861Z,9.43
2019-05-07T20:51:06.125Z,9.90
2019-05-07T20:53:57.023Z,8.60
2019-05-07T20:56:32.671Z,8.85
2019-05-07T20:59:04.127Z,9.25
2019-05-07T21:01:36.875Z,8.78
2019-05-07T21:04:07.900Z,8.60
2019-05-07T21:06:38.695Z,9.08
2019-05-07T21:09:09.561Z,8.60
2019-05-07T21:11:42.873Z,8.43
2019-05-07T21:14:13.807Z,8.83
2019-05-07T21:16:44.407Z,8.75
2019-05-07T21:19:15.074Z,9.00
2019-05-07T21:21:46.355Z,9.40
2019-05-07T21:24:17.160Z,8.90
2019-05-07T21:26:48.040Z,9.98
2019-05-07T21:29:19.207Z,9.55
2019-05-07T21:31:49.851Z,9.90
2019-05-07T21:34:22.826Z,9.58
2019-05-07T21:36:52.940Z,9.60
2019-05-07T21:39:23.735Z,10.05
2019-05-07T21:41:55.151Z,10.43
2019-05-07T21:44:25.887Z,10.90
2019-05-07T21:46:56.635Z,11.33
2019-05-07T21:49:27.477Z,11.22
2019-05-07T21:51:58.970Z,10.93
2019-05-07T21:54:43.485Z,11.08
2019-05-07T21:57:17.259Z,9.78
2019-05-07T21:59:48.110Z,10.40
2019-05-07T22:02:22.792Z,10.65
2019-05-07T22:04:53.621Z,10.88
2019-05-07T22:07:24.485Z,10.60
2019-05-07T22:09:55.190Z,10.38
2019-05-07T22:12:26.127Z,10.65
2019-05-07T22:14:56.814Z,10.15
2019-05-07T22:17:27.627Z,9.45
2019-05-07T22:19:58.309Z,8.75
2019-05-07T22:22:28.917Z,9.28
2019-05-07T22:24:59.477Z,8.93
2019-05-07T22:27:32.744Z,9.75
2019-05-07T22:30:05.668Z,8.93
2019-05-07T22:32:37.992Z,9.00
2019-05-07T22:35:16.576Z,9.65
2019-05-07T22:37:48.932Z,9.20
2019-05-07T22:40:36.179Z,9.70
2019-05-07T22:43:26.295Z,8.80
2019-05-07T22:46:14.368Z,9.33
2019-05-07T22:49:03.216Z,9.05
2019-05-07T22:51:54.583Z,9.98
2019-05-07T22:54:42.505Z,9.43
2019-05-07T22:57:32.833Z,10.28
2019-05-07T23:00:23.229Z,10.08
2019-05-07T23:03:12.808Z,10.58
2019-05-07T23:06:07.196Z,10.08
2019-05-07T23:08:56.014Z,10.75
2019-05-07T23:11:44.180Z,10.50
2019-05-07T23:14:32.998Z,10.70
2019-05-07T23:17:22.228Z,10.53
2019-05-07T23:20:11.174Z,10.68
2019-05-07T23:22:59.876Z,10.70
2019-05-07T23:25:48.395Z,11.40
2019-05-07T23:28:36.700Z,10.88
2019-05-07T23:31:25.208Z,10.75
2019-05-07T23:34:13.698Z,11.43
2019-05-07T23:37:02.539Z,10.75
2019-05-07T23:39:52.585Z,9.95
2019-05-07T23:42:45.059Z,11.03
2019-05-07T23:45:33.348Z,11.50
2019-05-07T23:48:22.835Z,11.05
2019-05-07T23:51:12.596Z,10.43
2019-05-07T23:54:02.822Z,10.93
2019-05-07T23:57:05.130Z,11.68
2019-05-07T23:59:42.714Z,11.75
